Flight Track Log - Related Links

Times and Time Zones

All times are in EDT time to prevent confusion due to time zone crossing. See the AWE518 flight status page for this flight to view local times or setup timezone preferences in your user account.

Time Position Orientation Groundspeed Altitude Reporting Facility
EDT Latitude Longitude Course Direction KTS MPH feet Rate Location/Type
Sat 11:42:00 AM 18.9303 -94.1862 277° West  Level FlightAware Approximate
Sat 11:43:00 AM 18.9439 -94.3088 277° West  Level FlightAware Approximate
Sat 11:44:00 AM 18.9575 -94.4314 277° West  Level FlightAware Approximate
Sat 11:45:00 AM 18.9709 -94.5541 277° West  Level FlightAware Approximate
Sat 11:46:00 AM 18.9843 -94.6767 277° West  Level FlightAware Approximate
Sat 11:47:00 AM 18.9976 -94.7994 277° West  Level FlightAware Approximate
Sat 11:48:00 AM 19.0108 -94.9221 277° West  Level FlightAware Approximate
Sat 11:49:00 AM 19.0239 -95.0448 276° West  Level FlightAware Approximate
Sat 11:50:00 AM 19.0367 -95.1675 276° West  Level FlightAware Approximate
Sat 11:51:00 AM 19.0487 -95.2904 276° West  Level FlightAware Approximate
Sat 11:52:00 AM 19.0606 -95.4133 276° West  Level FlightAware Approximate
Sat 11:53:00 AM 19.0724 -95.5361 276° West  Level FlightAware Approximate
Sat 11:54:00 AM 19.0842 -95.6590 276° West  Level FlightAware Approximate
Sat 11:55:00 AM 19.0958 -95.7820 276° West  Level FlightAware Approximate
Sat 11:56:00 AM 19.1074 -95.9049 276° West  Level FlightAware Approximate
Sat 11:57:00 AM 19.1189 -96.0279 276° West  Level FlightAware Approximate
Sat 11:58:00 AM 19.1303 -96.1508 276° West  Level FlightAware Approximate
Sat 11:59:00 AM 19.2098 -96.2249 333° Northwest  Level FlightAware Approximate
Sat 12:00:00 PM 19.3136 -96.2813 333° Northwest  Level FlightAware Approximate
Sat 12:01:00 PM 19.4175 -96.3379 333° Northwest  Level FlightAware Approximate
Sat 12:02:00 PM 19.5213 -96.3945 333° Northwest  Level FlightAware Approximate
Sat 12:03:00 PM 19.6251 -96.4512 333° Northwest  Level FlightAware Approximate
Sat 12:04:00 PM 19.7289 -96.5080 333° Northwest  Level FlightAware Approximate
Sat 12:05:00 PM 19.8327 -96.5648 333° Northwest  Level FlightAware Approximate
Sat 12:06:00 PM 19.9364 -96.6217 333° Northwest  Level FlightAware Approximate
Sat 12:07:00 PM 20.0402 -96.6787 333° Northwest  Level FlightAware Approximate
Sat 12:08:00 PM 20.1439 -96.7358 333° Northwest  Level FlightAware Approximate
Sat 12:09:00 PM 20.2497 -96.7880 338° Northwest  Level FlightAware Approximate
Sat 12:10:00 PM 20.3568 -96.8374 334° Northwest  Level FlightAware Approximate
Sat 12:11:00 PM 20.4618 -96.8919 334° Northwest  Level FlightAware Approximate
Sat 12:12:00 PM 20.5668 -96.9464 334° Northwest  Level FlightAware Approximate
Sat 12:13:00 PM 20.6718 -97.0010 334° Northwest  Level FlightAware Approximate
Sat 12:14:00 PM 20.7767 -97.0556 334° Northwest  Level FlightAware Approximate
Sat 12:15:00 PM 20.8817 -97.1104 334° Northwest  Level FlightAware Approximate
Sat 12:16:00 PM 20.9866 -97.1652 334° Northwest  Level FlightAware Approximate
Sat 12:17:00 PM 21.0915 -97.2201 334° Northwest  Level FlightAware Approximate
Sat 12:18:00 PM 21.1964 -97.2751 334° Northwest  Level FlightAware Approximate
Sat 12:19:00 PM 21.3013 -97.3301 334° Northwest  Level FlightAware Approximate
Sat 12:20:00 PM 21.4061 -97.3852 334° Northwest  Level FlightAware Approximate
Sat 12:21:00 PM 21.5109 -97.4405 334° Northwest  Level FlightAware Approximate
Sat 12:22:00 PM 21.6158 -97.4957 334° Northwest  Level FlightAware Approximate
Sat 12:23:00 PM 21.7206 -97.5511 334° Northwest  Level FlightAware Approximate
Sat 12:24:00 PM 21.8253 -97.6066 334° Northwest  Level FlightAware Approximate
Sat 12:25:00 PM 21.9301 -97.6621 334° Northwest  Level FlightAware Approximate
Sat 12:26:00 PM 22.0348 -97.7177 334° Northwest  Level FlightAware Approximate
Sat 12:27:00 PM 22.1396 -97.7734 334° Northwest  Level FlightAware Approximate
Sat 12:28:00 PM 22.2443 -97.8292 334° Northwest  Level FlightAware Approximate
Sat 12:29:00 PM 22.3425 -97.8966 324° Northwest  Level FlightAware Approximate
Sat 12:30:00 PM 22.4368 -97.9710 324° Northwest  Level FlightAware Approximate
Sat 12:31:00 PM 22.5311 -98.0455 324° Northwest  Level FlightAware Approximate
Sat 12:32:00 PM 22.6257 -98.1196 325° Northwest  Level FlightAware Approximate
Sat 12:33:00 PM 22.7210 -98.1926 325° Northwest  Level FlightAware Approximate
Sat 12:34:00 PM 22.8163 -98.2657 325° Northwest  Level FlightAware Approximate
Sat 12:35:00 PM 22.9116 -98.3390 325° Northwest  Level FlightAware Approximate
Sat 12:36:00 PM 23.0069 -98.4123 325° Northwest  Level FlightAware Approximate
Sat 12:37:00 PM 23.1021 -98.4857 325° Northwest  Level FlightAware Approximate
Sat 12:38:00 PM 23.1973 -98.5592 325° Northwest  Level FlightAware Approximate
Sat 12:39:00 PM 23.2889 -98.6376 325° Northwest  Level FlightAware Approximate
Sat 12:40:00 PM 23.3848 -98.7102 325° Northwest  Level FlightAware Approximate
Sat 12:41:00 PM 23.4806 -98.7829 325° Northwest  Level FlightAware Approximate
Sat 12:42:00 PM 23.5763 -98.8557 325° Northwest  Level FlightAware Approximate
Sat 12:43:00 PM 23.6721 -98.9287 325° Northwest  Level FlightAware Approximate
Sat 12:44:00 PM 23.7598 -99.0123 316° Northwest  Level FlightAware Approximate
Sat 12:45:00 PM 23.8443 -99.1004 316° Northwest  Level FlightAware Approximate
Sat 12:46:00 PM 23.9287 -99.1886 316° Northwest  Level FlightAware Approximate
Sat 12:47:00 PM 24.0131 -99.2769 316° Northwest  Level FlightAware Approximate
Sat 12:48:00 PM 24.0973 -99.3654 316° Northwest  Level FlightAware Approximate
Sat 12:49:00 PM 24.1816 -99.4539 316° Northwest  Level FlightAware Approximate
Sat 12:50:00 PM 24.2658 -99.5426 316° Northwest  Level FlightAware Approximate
Sat 12:51:00 PM 24.3500 -99.6314 316° Northwest  Level FlightAware Approximate
Sat 12:52:00 PM 24.4326 -99.7219 314° West  Level FlightAware Approximate
Sat 12:53:00 PM 24.5142 -99.8137 314° West  Level FlightAware Approximate
Sat 12:54:00 PM 24.5958 -99.9055 314° West  Level FlightAware Approximate
Sat 12:55:00 PM 24.6789 -99.9956 318° Northwest  Level FlightAware Approximate
Sat 12:56:00 PM 24.7654 -100.0820 318° Northwest  Level FlightAware Approximate
Sat 12:57:00 PM 24.8511 -100.1693 315° West  Level FlightAware Approximate
Sat 12:58:00 PM 24.9342 -100.2597 315° West  Level FlightAware Approximate
Sat 12:59:00 PM 25.0173 -100.3502 315° West  Level FlightAware Approximate
Sat 01:00:00 PM 25.1003 -100.4408 315° West  Level FlightAware Approximate
Sat 01:01:00 PM 25.1832 -100.5316 315° West  Level FlightAware Approximate
Sat 01:02:00 PM 25.2661 -100.6224 315° West  Level FlightAware Approximate
Sat 01:03:00 PM 25.3489 -100.7134 315° West  Level FlightAware Approximate
Sat 01:04:00 PM 25.4317 -100.8046 315° West  Level FlightAware Approximate
Sat 01:05:00 PM 25.5145 -100.8958 315° West  Level FlightAware Approximate
Sat 01:06:00 PM 25.6185 -100.9493 341° North  Level FlightAware Approximate
Sat 01:07:00 PM 25.7288 -100.9917 341° North  Level FlightAware Approximate
Sat 01:08:00 PM 25.8391 -101.0342 341° North  Level FlightAware Approximate
Sat 01:09:00 PM 25.9494 -101.0767 341° North  Level FlightAware Approximate
Sat 01:10:00 PM 26.0597 -101.1194 341° North  Level FlightAware Approximate
Sat 01:11:00 PM 26.1700 -101.1621 341° North  Level FlightAware Approximate
Sat 01:12:00 PM 26.2802 -101.2049 341° North  Level FlightAware Approximate
Sat 01:13:00 PM 26.3905 -101.2477 341° North  Level FlightAware Approximate
Sat 01:14:00 PM 26.5007 -101.2907 341° North  Level FlightAware Approximate
Sat 01:15:00 PM 26.6109 -101.3337 341° North  Level FlightAware Approximate
Sat 01:16:00 PM 26.7211 -101.3768 341° North  Level FlightAware Approximate
Sat 01:17:00 PM 26.8313 -101.4200 341° North  Level FlightAware Approximate
Sat 01:18:00 PM 26.9415 -101.4633 341° North  Level FlightAware Approximate
Sat 01:19:00 PM 27.0408 -101.5318 327° Northwest  Level FlightAware Approximate
Sat 01:20:00 PM 27.1391 -101.6025 327° Northwest  Level FlightAware Approximate
Sat 01:21:00 PM 27.2374 -101.6733 327° Northwest  Level FlightAware Approximate
Sat 01:22:00 PM 27.3357 -101.7442 327° Northwest  Level FlightAware Approximate
Sat 01:23:00 PM 27.4339 -101.8152 327° Northwest  Level FlightAware Approximate
Sat 01:24:00 PM 27.5321 -101.8864 327° Northwest  Level FlightAware Approximate
Sat 01:25:00 PM 27.6303 -101.9577 327° Northwest  Level FlightAware Approximate
Sat 01:25:57 PM 28.6411 -102.6797 327° Northwest 423 487 32,000  Level Albuquerque Center
Sat 01:26:00 PM 27.7284 -102.0292 327° Northwest  Level FlightAware Approximate
Sat 01:26:59 PM 28.7281 -102.7514 324° Northwest 406 467 32,000  Level Albuquerque Center
Sat 01:27:00 PM 27.8265 -102.1007 327° Northwest  Level FlightAware Approximate
Sat 01:28:00 PM 27.9245 -102.1725 327° Northwest  Level FlightAware Approximate
Sat 01:28:01 PM 28.8136 -102.8314 321° Northwest 401 461 32,000  Level Albuquerque Center
Sat 01:29:00 PM 28.0223 -102.2447 327° Northwest  Level FlightAware Approximate
Sat 01:29:03 PM 28.9094 -102.9375 316° Northwest 397 457 32,000  Level Albuquerque Center
Sat 01:30:00 PM 28.1200 -102.3171 327° Northwest  Level FlightAware Approximate
Sat 01:30:05 PM 28.9881 -103.0233 316° Northwest 394 453 32,000  Level Albuquerque Center
Sat 01:31:00 PM 28.2177 -102.3896 327° Northwest  Level FlightAware Approximate
Sat 01:31:07 PM 29.0653 -103.1103 315° West 390 449 31,900  Level Albuquerque Center
Sat 01:32:09 PM 29.1439 -103.1958 316° Northwest 390 449 31,900 48 Level Albuquerque Center
Sat 01:33:11 PM 29.2247 -103.2861 316° Northwest 390 449 32,000 48 Climbing Albuquerque Center
Sat 01:34:13 PM 29.3019 -103.3717 316° Northwest 389 448 32,000 -48 Level Albuquerque Center
Sat 01:35:15 PM 29.3789 -103.4575 316° Northwest 385 443 31,900 -48 Descending Albuquerque Center
Sat 01:36:17 PM 29.4556 -103.5419 316° Northwest 382 440 31,900  Level Albuquerque Center
Sat 01:37:19 PM 29.5469 -103.6447 316° Northwest 383 441 31,900  Level Albuquerque Center
Sat 01:38:22 PM 29.6122 -103.7375 309° West 375 432 31,900 48 Level Albuquerque Center
Sat 01:39:24 PM 29.6658 -103.8406 301° West 374 430 32,000 48 Climbing Albuquerque Center
Sat 01:40:26 PM 29.7200 -103.9444 301° West 377 434 32,000  Level Albuquerque Center
Sat 01:41:28 PM 29.7733 -104.0506 300° West 382 440 32,000  Level Albuquerque Center
Sat 01:42:30 PM 29.8269 -104.1556 300° West 382 440 32,000  Level Albuquerque Center
Sat 01:43:32 PM 29.8919 -104.2828 301° West 383 441 32,000 -48 Level Albuquerque Center
Sat 01:44:34 PM 29.9453 -104.3869 301° West 381 438 31,900  Descending Albuquerque Center
Sat 01:45:36 PM 29.9983 -104.4919 300° West 379 436 32,000 48 Climbing Albuquerque Center
Sat 01:46:38 PM 30.0522 -104.5986 300° West 382 440 32,000  Level Albuquerque Center
Sat 01:47:40 PM 30.1053 -104.7031 300° West 379 436 32,000 -48 Level Albuquerque Center
Sat 01:48:42 PM 30.1583 -104.8092 300° West 380 437 31,900 -48 Descending Albuquerque Center
Sat 01:49:44 PM 30.2214 -104.9344 300° West 376 433 31,900 435 Level Albuquerque Center
Sat 01:50:46 PM 30.2736 -105.0406 300° West 378 435 32,800 823 Climbing Albuquerque Center
Sat 01:51:48 PM 30.3289 -105.1500 300° West 386 444 33,600 581 Climbing Albuquerque Center
Sat 01:52:50 PM 30.3831 -105.2603 300° West 389 448 34,000 145 Climbing Albuquerque Center
Sat 01:53:52 PM 30.4400 -105.3747 300° West 396 456 33,900 -48 Descending Albuquerque Center
Sat 01:54:54 PM 30.4978 -105.4931 300° West 407 468 33,900 48 Level Albuquerque Center
Sat 01:55:56 PM 30.5564 -105.6086 301° West 414 476 34,000  Climbing Albuquerque Center
Sat 01:56:59 PM 30.6239 -105.7458 300° West 409 471 33,900 -48 Descending Albuquerque Center
Sat 01:58:01 PM 30.6800 -105.8619 299° West 410 472 33,900 48 Level Albuquerque Center
Sat 01:59:03 PM 30.7369 -105.9778 300° West 411 473 34,000 32 Climbing Albuquerque Center
Sat 02:01:07 PM 30.8489 -106.2092 299° West 410 472 34,000  Level Albuquerque Center
Sat 02:02:09 PM 30.9039 -106.3206 300° West 409 471 34,000 -48 Level Albuquerque Center
Sat 02:03:11 PM 30.9706 -106.4572 300° West 406 467 33,900 -32 Descending Albuquerque Center
Sat 02:05:15 PM 31.0800 -106.6864 299° West 404 465 33,900  Level Albuquerque Center
Sat 02:06:17 PM 31.1344 -106.8006 299° West 404 465 33,900  Level Albuquerque Center
Sat 02:07:19 PM 31.1894 -106.9175 299° West 408 470 33,900  Level Albuquerque Center
Sat 02:08:21 PM 31.2447 -107.0325 299° West 406 467 33,900 48 Level Albuquerque Center
Sat 02:09:23 PM 31.3108 -107.1714 299° West 407 468 34,000  Climbing Albuquerque Center
Sat 02:10:25 PM 31.3661 -107.2897 299° West 411 473 33,900  Descending Albuquerque Center
Sat 02:11:27 PM 31.4222 -107.4083 299° West 414 476 34,000  Climbing Albuquerque Center
Sat 02:12:29 PM 31.4750 -107.5222 299° West 415 478 33,900 -48 Descending Albuquerque Center
Sat 02:13:31 PM 31.5314 -107.6422 299° West 408 470 33,900 48 Level Albuquerque Center
Sat 02:14:33 PM 31.5856 -107.7583 299° West 405 466 34,000 48 Climbing Albuquerque Center
Sat 02:15:35 PM 31.6517 -107.9003 299° West 411 473 34,000 -48 Level Albuquerque Center
Sat 02:16:37 PM 31.7028 -108.0125 298° West 398 458 33,900  Descending Albuquerque Center
Sat 02:17:39 PM 31.7561 -108.1264 299° West 396 456 34,000 48 Climbing Albuquerque Center
Sat 02:18:41 PM 31.8058 -108.2350 298° West 399 459 34,000 -629 Level Albuquerque Center
Sat 02:19:43 PM 31.8572 -108.3511 298° West 403 464 32,700 -2,032 Descending Albuquerque Center
Sat 02:20:45 PM 31.9192 -108.4847 299° West 391 450 29,800 -2,208 Descending Albuquerque Center
Sat 02:21:48 PM 31.9689 -108.5958 298° West 387 445 28,100 -864 Descending Albuquerque Center
Sat 02:22:50 PM 32.0178 -108.7028 298° West 376 433 28,000 -48 Descending Albuquerque Center
Sat 02:23:52 PM 32.0686 -108.8125 299° West 379 436 28,000  Level Albuquerque Center
Sat 02:24:54 PM 32.1175 -108.9222 298° West 380 437 28,000  Level Albuquerque Center
Sat 02:25:56 PM 32.1664 -109.0322 298° West 379 436 28,000  Level Albuquerque Center
Sat 02:26:58 PM 32.2261 -109.1656 298° West 382 440 28,000  Level Albuquerque Center
Sat 02:28:00 PM 32.2733 -109.2772 297° West 381 438 28,000  Level Albuquerque Center
Sat 02:29:02 PM 32.3033 -109.4000 286° West 391 450 28,000  Level Albuquerque Center
Sat 02:30:04 PM 32.3331 -109.5214 286° West 386 444 28,000  Level Albuquerque Center
Sat 02:31:06 PM 32.3678 -109.6431 289° West 388 447 28,000  Level Albuquerque Center
Sat 02:32:08 PM 32.3958 -109.7667 285° West 390 449 28,000  Level Albuquerque Center
Sat 02:33:10 PM 32.4339 -109.9206 286° West 402 463 28,000  Level Albuquerque Center
Sat 02:34:12 PM 32.4636 -110.0497 285° West 406 467 28,000  Level Albuquerque Center
Sat 02:35:14 PM 32.4931 -110.1750 286° West 400 460 28,000 -290 Level Albuquerque Center
Sat 02:36:16 PM 32.5203 -110.2975 285° West 390 449 27,400 -823 Descending Albuquerque Center
Sat 02:37:18 PM 32.5517 -110.4336 285° West 390 449 26,300 -1,403 Descending Albuquerque Center
Sat 02:38:20 PM 32.5808 -110.5589 285° West 394 453 24,500 -1,597 Descending Albuquerque Center
Sat 02:39:22 PM 32.6269 -110.6600 298° West 355 409 23,000 -1,452 Descending Albuquerque Center
Sat 02:40:24 PM 32.6775 -110.7558 302° West 343 395 21,500 -1,355 Descending Albuquerque Center
Sat 02:41:26 PM 32.7292 -110.8483 304° West 339 390 20,200 -1,403 Descending Albuquerque Center
Sat 02:42:28 PM 32.7867 -110.9589 302° West 331 381 18,600 -1,355 Descending Albuquerque Center
Sat 02:43:30 PM 32.8328 -111.0478 302° West 321 369 17,400 -1,210 Descending Albuquerque Center
Sat 02:44:32 PM 32.8806 -111.1372 302° West 319 367 16,100 -1,210 Descending Albuquerque Center
Sat 02:45:34 PM 32.9208 -111.2258 298° West 309 356 14,900 -1,210 Descending Albuquerque Center
Sat 02:46:36 PM 32.9619 -111.3114 300° West 298 343 13,600 -1,161 Descending Albuquerque Center
Sat 02:47:38 PM 33.0006 -111.3981 298° West 297 342 12,500 -1,113 Descending Albuquerque Center
Sat 02:48:40 PM 33.0392 -111.4744 301° West 274 315 11,300 -1,210 Descending Albuquerque Center
Sat 02:49:42 PM 33.0872 -111.5644 303° West 269 310 10,000 -1,548 Descending Albuquerque Center
Sat 02:50:44 PM 33.1542 -111.6017 335° Northwest 267 307 8,100 -968 Descending Albuquerque Center
Sat 02:51:46 PM 33.2200 -111.6378 335° Northwest 261 300 8,000 -581 Descending Albuquerque Center
Sat 02:52:48 PM 33.2853 -111.6769 333° Northwest 262 302 6,900 -1,210 Descending Albuquerque Center
Sat 02:53:50 PM 33.3497 -111.7142 334° Northwest 258 297 5,500 -968 Descending Albuquerque Center
Sat 02:54:52 PM 33.4056 -111.7678 321° Northwest 273 314 4,900 -829 Descending Albuquerque Center
Sat 02:55:53 PM 33.4286 -111.8544 288° West 229 264 3,800 -1,091 Descending Albuquerque Center
Sat 02:57:04 PM 33.4333 -111.9167 275° West 164 189 2,500 -962 Descending Phoenix TRACON
Sat 02:58:04 PM 33.4333 -111.9667 270° West 143 165 1,700 -800 Descending Phoenix TRACON
Sat 03:00:00 PM 33.4333 -112.0000 270° West  Level FlightAware Approximate

Login

Don't have an account? Register now (free) for customized features, flight alerts, and more!